TimeEDT,TemperatureF,Dew PointF,Humidity,Sea Level PressureIn,VisibilityMPH,Wind Direction,Wind SpeedMPH,Gust SpeedMPH,PrecipitationIn,Events,Conditions,WindDirDegrees,DateUTC
12:15 AM,74.8,73.0,94,30.04,10.0,SSE,4.6,-,N/A,,Mostly Cloudy,160,2013-08-03 04:15:00
12:35 AM,74.7,72.9,94,30.04,10.0,South,4.6,-,N/A,,Scattered Clouds,190,2013-08-03 04:35:00
12:55 AM,75.2,73.4,94,30.04,7.0,SSW,4.6,-,N/A,,Scattered Clouds,210,2013-08-03 04:55:00
1:15 AM,75.9,74.3,95,30.04,7.0,SSW,5.8,-,N/A,,Scattered Clouds,200,2013-08-03 05:15:00
1:35 AM,75.7,74.3,95,30.03,7.0,SSW,5.8,-,N/A,,Clear,200,2013-08-03 05:35:00
1:55 AM,75.6,74.1,95,30.03,7.0,SW,4.6,-,N/A,,Clear,220,2013-08-03 05:55:00
2:15 AM,75.6,74.3,96,30.02,7.0,SSW,6.9,-,N/A,,Scattered Clouds,210,2013-08-03 06:15:00
2:35 AM,75.7,74.3,95,30.01,7.0,SSW,5.8,-,N/A,,Scattered Clouds,210,2013-08-03 06:35:00
2:55 AM,76.1,74.7,95,30.01,7.0,SW,6.9,-,N/A,,Clear,230,2013-08-03 06:55:00
3:15 AM,76.1,74.5,95,30.01,7.0,SSW,6.9,-,N/A,,Clear,210,2013-08-03 07:15:00
3:35 AM,75.7,74.3,95,30.01,7.0,SSW,5.8,-,N/A,,Clear,210,2013-08-03 07:35:00
3:55 AM,75.7,74.3,95,30.01,7.0,SSW,6.9,-,N/A,,Clear,210,2013-08-03 07:55:00
4:15 AM,75.7,74.3,95,30.02,7.0,SW,5.8,-,N/A,,Clear,220,2013-08-03 08:15:00
4:35 AM,75.4,73.9,95,30.01,7.0,SW,4.6,-,N/A,,Clear,220,2013-08-03 08:35:00
4:55 AM,75.2,73.8,95,30.01,7.0,SW,4.6,-,N/A,,Clear,230,2013-08-03 08:55:00
5:15 AM,75.4,73.8,95,30.02,10.0,SSW,5.8,-,N/A,,Clear,210,2013-08-03 09:15:00
5:35 AM,75.2,73.6,95,30.02,7.0,SSW,5.8,-,N/A,,Clear,200,2013-08-03 09:35:00
5:55 AM,75.4,73.8,95,30.02,7.0,SSW,6.9,-,N/A,,Clear,200,2013-08-03 09:55:00
6:15 AM,75.4,73.8,95,30.03,10.0,SSW,6.9,-,N/A,,Clear,210,2013-08-03 10:15:00
6:35 AM,75.2,73.6,95,30.04,7.0,SSW,6.9,-,N/A,,Clear,200,2013-08-03 10:35:00
6:55 AM,75.2,73.6,95,30.04,7.0,SSW,5.8,-,N/A,,Clear,210,2013-08-03 10:55:00
6:56 AM,75.2,73.4,94,30.04,7.0,SSW,4.6,-,N/A,,Clear,210,2013-08-03 10:56:00
7:56 AM,77.0,75.2,94,30.05,10.0,SW,8.1,-,N/A,,Clear,220,2013-08-03 11:56:00
8:56 AM,80.6,75.2,84,30.06,10.0,SW,9.2,-,N/A,,Mostly Cloudy,220,2013-08-03 12:56:00
9:56 AM,82.4,75.2,79,30.04,10.0,SSW,10.4,-,N/A,,Scattered Clouds,200,2013-08-03 13:56:00
10:56 AM,84.2,73.4,70,30.04,10.0,SW,10.4,-,N/A,,Scattered Clouds,220,2013-08-03 14:56:00
11:56 AM,86.0,73.4,66,30.02,10.0,SW,6.9,-,N/A,,Scattered Clouds,220,2013-08-03 15:56:00
12:56 PM,87.8,73.4,62,30.00,10.0,SW,9.2,-,N/A,,Scattered Clouds,220,2013-08-03 16:56:00
1:56 PM,87.8,73.4,62,30.00,10.0,SW,8.1,-,N/A,,Clear,230,2013-08-03 17:56:00
2:56 PM,89.6,71.6,55,29.98,10.0,SW,8.1,-,N/A,,Clear,230,2013-08-03 18:56:00
3:56 PM,91.4,71.6,52,29.95,10.0,SW,8.1,-,N/A,,Scattered Clouds,220,2013-08-03 19:56:00
4:56 PM,87.8,71.6,58,29.94,7.0,SSW,12.7,-,N/A,,Scattered Clouds,210,2013-08-03 20:56:00
5:56 PM,87.8,73.4,62,29.93,10.0,South,10.4,-,N/A,,Scattered Clouds,180,2013-08-03 21:56:00
6:56 PM,84.2,75.2,74,29.93,10.0,SSE,6.9,-,N/A,,Scattered Clouds,160,2013-08-03 22:56:00
7:56 PM,82.4,73.4,74,29.92,7.0,SSE,6.9,-,N/A,,Scattered Clouds,160,2013-08-03 23:56:00
8:56 PM,73.4,68.0,83,29.95,7.0,Calm,Calm,-,N/A,,Scattered Clouds,0,2013-08-04 00:56:00
9:15 PM,73.6,70.0,88,29.97,10.0,West,5.8,-,N/A,,Scattered Clouds,280,2013-08-04 01:15:00
9:35 PM,74.7,72.3,92,29.96,7.0,SSE,9.2,-,0.01,Rain,Rain,160,2013-08-04 01:35:00
10:15 PM,75.2,73.4,94,29.96,10.0,SW,5.8,-,N/A,,Clear,220,2013-08-04 02:15:00
10:35 PM,75.4,72.7,91,29.98,4.0,WSW,8.1,-,0.03,,Scattered Clouds,250,2013-08-04 02:35:00
10:55 PM,73.9,72.1,94,29.99,2.5,SW,9.2,23.0,0.37,Rain,Light Rain,220,2013-08-04 02:55:00
11:15 PM,73.2,70.7,92,29.98,10.0,SSW,10.4,-,N/A,,Scattered Clouds,200,2013-08-04 03:15:00
11:35 PM,73.4,71.6,94,29.97,10.0,SW,3.5,-,N/A,,Clear,220,2013-08-04 03:35:00
11:55 PM,73.6,71.8,94,29.96,10.0,Calm,Calm,-,N/A,,Clear,0,2013-08-04 03:55:00